createdAt,value
2022-11-22T00:06:57.329Z,995.1
2022-11-22T00:21:53.670Z,995.1
2022-11-22T00:36:50.511Z,994.8
2022-11-22T00:51:46.302Z,995.1
2022-11-22T01:06:42.412Z,995
2022-11-22T01:21:38.402Z,995.4
2022-11-22T01:36:34.480Z,995.5
2022-11-22T01:51:30.687Z,995.6
2022-11-22T02:06:27.242Z,995.8
2022-11-22T02:21:23.290Z,995.8
2022-11-22T02:36:19.658Z,996
2022-11-22T02:51:15.567Z,995.9
2022-11-22T03:06:11.971Z,996.1
2022-11-22T03:21:07.948Z,996.3
2022-11-22T03:36:04.076Z,996.5
2022-11-22T03:51:00.328Z,996.7
2022-11-22T04:05:56.285Z,996.8
2022-11-22T04:20:52.465Z,996.8
2022-11-22T04:35:48.971Z,996.8
2022-11-22T04:50:44.545Z,996.9
2022-11-22T05:05:40.464Z,996.7
2022-11-22T05:20:36.444Z,996.7
2022-11-22T05:35:31.844Z,997
2022-11-22T05:50:27.398Z,997.3
2022-11-22T06:05:24.237Z,997.3
2022-11-22T06:20:20.260Z,997.3
2022-11-22T06:35:16.615Z,997.7
2022-11-22T06:50:16.245Z,997.9
2022-11-22T07:05:24.951Z,997.9
2022-11-22T07:20:05.383Z,997.8
2022-11-22T07:35:02.316Z,997.6
2022-11-22T07:49:59.047Z,997.7
2022-11-22T08:04:55.229Z,997.9
2022-11-22T08:19:51.015Z,998.1
2022-11-22T08:34:47.609Z,998.4
2022-11-22T08:49:43.301Z,998.5
2022-11-22T09:04:39.248Z,998.4
2022-11-22T09:19:35.989Z,998.4
2022-11-22T09:34:32.335Z,998.4
2022-11-22T09:49:28.882Z,998.4
2022-11-22T10:04:24.821Z,998.4
2022-11-22T10:19:20.901Z,998.2
2022-11-22T10:34:17.253Z,998
2022-11-22T10:49:13.675Z,997.9
2022-11-22T11:04:10.223Z,997.8
2022-11-22T11:19:06.382Z,997.7
2022-11-22T11:34:02.625Z,997.6
2022-11-22T11:48:58.504Z,997.6
2022-11-22T12:03:55.056Z,997.4
2022-11-22T12:18:50.995Z,997.4
2022-11-22T12:33:47.739Z,997.5
2022-11-22T12:48:47.275Z,997.5
2022-11-22T13:03:39.622Z,997.5
2022-11-22T13:18:36.067Z,997.6
2022-11-22T13:33:31.712Z,997.5
2022-11-22T13:48:27.750Z,997.4
2022-11-22T14:03:24.177Z,997.2
2022-11-22T14:18:20.224Z,997.3
2022-11-22T14:33:16.616Z,997
2022-11-22T14:48:12.927Z,997.1
2022-11-22T15:03:08.718Z,997.4
2022-11-22T16:02:52.672Z,997.8
2022-11-22T16:17:48.184Z,997.9
2022-11-22T16:32:44.390Z,998.1
2022-11-22T16:47:40.548Z,998.3
2022-11-22T17:02:36.354Z,998.3
2022-11-22T17:17:32.721Z,998.5
2022-11-22T17:32:28.736Z,998.6
2022-11-22T17:47:25.114Z,998.8
2022-11-22T18:02:22.061Z,998.9
2022-11-22T18:17:18.085Z,999
2022-11-22T18:32:14.573Z,999.1
2022-11-22T18:47:11.079Z,999.2
2022-11-22T19:02:07.485Z,999.3
2022-11-22T19:17:03.385Z,999.4
2022-11-22T19:31:59.777Z,999.4
2022-11-22T19:46:56.200Z,999.3
2022-11-22T20:01:52.625Z,999.5
2022-11-22T20:16:48.223Z,999.6
2022-11-22T20:31:44.653Z,999.7
2022-11-22T20:46:40.677Z,999.6
2022-11-22T21:01:36.805Z,999.5
2022-11-22T21:16:32.763Z,999.7
2022-11-22T21:31:29.495Z,999.6
2022-11-22T21:46:25.493Z,999.8
2022-11-22T23:01:06.953Z,1000
2022-11-22T23:16:03.357Z,1000.2
2022-11-22T23:30:59.163Z,1000.2
2022-11-22T23:45:55.301Z,1000.3
